Airfield :
LOGIN :

Register | Disclaimer

   EN    FR    IT 

 










Legend :    VFR   Marginal VFR   IFR   Intensive IFR   Very Intensive IFR
Visi :
Ceiling :
>= 8 km
>= 3000ft
5 to 8 km
1000 to 3000 ft
1500m to 5 km
500 to 1000 ft
800 to 1500m
200 to 500 ft
< 800m
< 200 ft
Symbols :   Thunderstorms  Fog  Heavy snow  Heavy precipitations  Wind > 20 kt
SIGMETs :     Misc.  Thunderstorms  Icing  Turbulence  Mountain Waves  Volcanic Ashes







- Airport Elevation : 76 ft
- IATA code : KID


ESMK - Kristianstad

CURRENT METAR :
  • 170720Z VRB02KT 8000 BR NSC 15/15 Q1015

EXPIRED METARs :
  • 170650Z 12005KT 6000 BR NSC 14/14 Q1015
  • 170620Z 17005KT 6000 BR NSC 14/14 Q1015
  • 170550Z 20008KT 5000 BR NSC 14/14 Q1015
  • 170520Z 21007KT 3900 BR NSC 13/13 Q1015
  • 170450Z 21006KT 4600 BR NSC 13/13 Q1015

TAF TAF ESMK
Valid from the 17 at 06:00 until the 17 at 15:00 UTC


170454Z 1706/1715 19008KT 4000 BR SCT025
BECMG 1706/1708 23012KT 9999 NSW
TEMPO 1708/1715 24015G25KT
No reported NOTAMs for that airfield.



MET'MAP, your aeronautical weather chart ! - Copyright ORBIFLY December 2007 - Disclaimer

ORBIFLY MET'MAP TEAM :

Programming & Development : Alexandra Zaïnal
Concept & Development : Baudouin d'Aumeries
Co-Development & Prog : Marc-Olivier Méhu
Technical & hardware support : Manuel Goepfert

Contact : metmap@orbifly.com




SOURCES & CREDITS :

   NOAA